Time;durP1;ratioP1;P1;durP2;ratioP2;P2;SDS_P1;SDS_P2;PMS_P1;PMS_P2;Temp;Humidity;BMP_temperature;BMP_pressure;BME280_temperature;BME280_humidity;BME280_pressure;Samples;Min_cycle;Max_cycle;Signal;HPM_P1;HPM_P2
2021/03/18 00:00:44;;;;;;;;;;;18.10;51.70;;;;;;4902772;29;19931;-84
2021/03/18 00:03:13;;;;;;;;;;;18.00;51.70;;;;;;4908030;29;19928;-83
2021/03/18 00:05:40;;;;;;;;;;;18.00;52.30;;;;;;4896916;29;19946;-85
2021/03/18 00:08:06;;;;;;;;;;;18.00;51.70;;;;;;4904328;29;19938;-85
2021/03/18 00:10:33;;;;;;;;;;;18.00;51.80;;;;;;4909198;29;19935;-85
2021/03/18 00:12:59;;;;;;;;;;;18.00;51.80;;;;;;4905807;29;19951;-85
2021/03/18 00:15:29;;;;;;;;;;;18.00;51.80;;;;;;4910007;29;19955;-85
2021/03/18 00:17:56;;;;;;;;;;;18.00;51.80;;;;;;4905387;29;19977;-84
2021/03/18 00:20:23;;;;;;;;;;;18.00;51.80;;;;;;4905582;29;19927;-85
2021/03/18 00:22:50;;;;;;;;;;;17.90;51.80;;;;;;4902604;29;20428;-84
2021/03/18 00:25:19;;;;;;;;;;;17.90;51.80;;;;;;4897588;29;19936;-84
2021/03/18 00:27:48;;;;;;;;;;;17.90;51.80;;;;;;4905989;29;19927;-84
2021/03/18 00:30:18;;;;;;;;;;;17.90;51.80;;;;;;4910790;29;19931;-85
2021/03/18 00:32:45;;;;;;;;;;;17.90;51.80;;;;;;4905884;29;19950;-85
2021/03/18 00:35:13;;;;;;;;;;;17.90;51.90;;;;;;4909000;29;19965;-84
2021/03/18 00:37:40;;;;;;;;;;;17.90;51.90;;;;;;4907463;29;20293;-85
2021/03/18 00:40:09;;;;;;;;;;;17.90;51.80;;;;;;4907134;29;20415;-85
2021/03/18 00:42:45;;;;;;;;;;;17.80;51.80;;;;;;4901260;29;19932;-87
2021/03/18 00:45:12;;;;;;;;;;;17.80;51.70;;;;;;4907875;29;20042;-84
2021/03/18 00:47:40;;;;;;;;;;;17.80;51.80;;;;;;4922671;29;19938;-84
2021/03/18 00:50:07;;;;;;;;;;;17.80;51.80;;;;;;4904427;29;19967;-84
2021/03/18 00:52:33;;;;;;;;;;;17.80;51.80;;;;;;4905168;29;19934;-84
2021/03/18 00:54:59;;;;;;;;;;;17.80;51.80;;;;;;4909995;29;19927;-84
2021/03/18 00:57:28;;;;;;;;;;;17.80;51.80;;;;;;4904028;29;19928;-84
2021/03/18 00:59:54;;;;;;;;;;;17.80;51.90;;;;;;4917069;29;19939;-84
2021/03/18 01:02:23;;;;;;;;;;;17.70;51.80;;;;;;4921282;29;19936;-84
2021/03/18 01:04:50;;;;;;;;;;;17.70;51.80;;;;;;4924340;29;19928;-84
2021/03/18 01:07:16;;;;;;;;;;;17.70;51.80;;;;;;4898613;29;19971;-84
2021/03/18 01:09:42;;;;;;;;;;;17.70;51.80;;;;;;4899295;29;19927;-84
2021/03/18 01:12:09;;;;;;;;;;;17.70;51.80;;;;;;4900588;29;19938;-85
2021/03/18 01:14:35;;;;;;;;;;;17.70;51.80;;;;;;4908178;29;19934;-85
2021/03/18 01:17:02;;;;;;;;;;;17.70;51.80;;;;;;4906532;29;19985;-84
2021/03/18 01:19:30;;;;;;;;;;;17.70;51.80;;;;;;4896441;29;20391;-84
2021/03/18 01:21:57;;;;;;;;;;;17.70;51.80;;;;;;4908404;29;19918;-85
2021/03/18 01:24:23;;;;;;;;;;;17.60;51.80;;;;;;4909213;29;19927;-84
2021/03/18 01:26:50;;;;;;;;;;;17.60;51.80;;;;;;4910750;29;20034;-85
2021/03/18 01:29:16;;;;;;;;;;;17.60;51.80;;;;;;4898308;29;19927;-85
2021/03/18 01:31:42;;;;;;;;;;;17.60;51.80;;;;;;4912646;29;20442;-86
2021/03/18 01:34:09;;;;;;;;;;;17.60;51.80;;;;;;4894890;29;19927;-84
2021/03/18 01:36:36;;;;;;;;;;;17.60;51.80;;;;;;4898915;29;20406;-83
2021/03/18 01:39:04;;;;;;;;;;;17.60;51.80;;;;;;4911031;29;19927;-83
2021/03/18 01:41:31;;;;;;;;;;;17.60;51.80;;;;;;4906421;29;19934;-84
2021/03/18 01:43:57;;;;;;;;;;;17.60;51.90;;;;;;4907069;29;19915;-84
2021/03/18 01:46:23;;;;;;;;;;;17.60;51.90;;;;;;4910126;29;19927;-84
2021/03/18 01:48:50;;;;;;;;;;;17.50;51.90;;;;;;4907658;29;19935;-84
2021/03/18 01:51:18;;;;;;;;;;;17.50;51.80;;;;;;4880479;29;19928;-84
2021/03/18 01:53:44;;;;;;;;;;;17.50;51.80;;;;;;4895741;29;19931;-84
2021/03/18 01:56:12;;;;;;;;;;;17.50;51.90;;;;;;4901902;29;19942;-84
2021/03/18 01:58:40;;;;;;;;;;;17.50;51.90;;;;;;4901866;29;20616;-84
2021/03/18 02:01:08;;;;;;;;;;;17.50;51.90;;;;;;4909100;29;20403;-85
2021/03/18 02:03:35;;;;;;;;;;;17.50;51.90;;;;;;4902260;29;20416;-85
2021/03/18 02:06:02;;;;;;;;;;;17.50;51.90;;;;;;4902437;29;19927;-85
2021/03/18 02:08:28;;;;;;;;;;;17.40;51.90;;;;;;4902991;29;19934;-85
2021/03/18 02:10:55;;;;;;;;;;;17.40;51.90;;;;;;4924083;28;19927;-85
2021/03/18 02:13:21;;;;;;;;;;;17.40;51.90;;;;;;4915198;28;19931;-86
2021/03/18 02:15:50;;;;;;;;;;;17.40;51.90;;;;;;4905364;29;20741;-84
2021/03/18 02:18:25;;;;;;;;;;;17.40;51.80;;;;;;4917880;29;20464;-84
2021/03/18 02:21:14;;;;;;;;;;;17.40;51.90;;;;;;4911144;29;19958;-84
2021/03/18 02:23:43;;;;;;;;;;;17.40;51.80;;;;;;4909472;29;19931;-90
2021/03/18 02:26:18;;;;;;;;;;;17.40;51.80;;;;;;4923976;29;19928;-86
2021/03/18 02:28:47;;;;;;;;;;;17.40;51.80;;;;;;4910588;29;19933;-86
2021/03/18 02:31:20;;;;;;;;;;;17.40;51.90;;;;;;4920897;28;19935;-85
2021/03/18 02:33:52;;;;;;;;;;;17.40;51.80;;;;;;4920787;29;20432;-85
2021/03/18 02:36:19;;;;;;;;;;;17.40;51.90;;;;;;4915296;29;19934;-85
2021/03/18 02:38:51;;;;;;;;;;;17.30;51.80;;;;;;4924856;29;19954;-83
2021/03/18 02:41:21;;;;;;;;;;;17.40;51.90;;;;;;4910308;29;19931;-84
2021/03/18 02:43:50;;;;;;;;;;;17.40;51.90;;;;;;4904878;29;19927;-84
2021/03/18 02:46:18;;;;;;;;;;;17.30;51.90;;;;;;4908434;29;19927;-82
2021/03/18 02:48:45;;;;;;;;;;;17.30;51.80;;;;;;4893327;29;20018;-83
2021/03/18 02:51:14;;;;;;;;;;;17.30;51.90;;;;;;4904074;29;19963;-83
2021/03/18 02:53:42;;;;;;;;;;;17.30;51.90;;;;;;4897715;29;19941;-85
2021/03/18 02:56:09;;;;;;;;;;;17.20;51.90;;;;;;4908924;29;19934;-84
2021/03/18 02:58:36;;;;;;;;;;;17.30;51.90;;;;;;4902532;29;20014;-84
2021/03/18 03:01:05;;;;;;;;;;;17.30;51.90;;;;;;4903263;29;19934;-84
2021/03/18 03:03:40;;;;;;;;;;;17.30;51.90;;;;;;4909795;29;19931;-84
2021/03/18 03:06:08;;;;;;;;;;;17.20;51.80;;;;;;4898826;29;19962;-84
2021/03/18 03:08:34;;;;;;;;;;;17.20;51.80;;;;;;4907731;29;20660;-84
2021/03/18 03:11:02;;;;;;;;;;;17.20;51.80;;;;;;4906399;29;19931;-85
2021/03/18 03:13:30;;;;;;;;;;;17.20;51.70;;;;;;4905249;29;19934;-85
2021/03/18 03:15:59;;;;;;;;;;;17.20;51.80;;;;;;4908086;29;19935;-86
2021/03/18 03:18:27;;;;;;;;;;;17.20;51.80;;;;;;4920470;29;19931;-84
2021/03/18 03:20:54;;;;;;;;;;;17.20;51.80;;;;;;4908434;29;20412;-84
2021/03/18 03:23:22;;;;;;;;;;;17.20;51.80;;;;;;4904199;29;20307;-85
2021/03/18 03:25:48;;;;;;;;;;;17.20;51.80;;;;;;4904790;29;19934;-84
2021/03/18 03:28:15;;;;;;;;;;;17.20;51.80;;;;;;4923106;28;19927;-84
2021/03/18 03:30:42;;;;;;;;;;;17.20;51.80;;;;;;4910898;29;20372;-84
2021/03/18 03:33:10;;;;;;;;;;;17.20;51.80;;;;;;4906745;29;19915;-84
2021/03/18 03:35:39;;;;;;;;;;;17.20;51.80;;;;;;4907467;29;19936;-84
2021/03/18 03:38:05;;;;;;;;;;;17.20;51.90;;;;;;4906095;29;19927;-85
2021/03/18 03:40:32;;;;;;;;;;;17.20;51.80;;;;;;4897977;29;19931;-85
2021/03/18 03:42:59;;;;;;;;;;;17.10;51.70;;;;;;4908294;29;19935;-85
2021/03/18 03:45:25;;;;;;;;;;;17.10;51.70;;;;;;4903703;29;20055;-85
2021/03/18 03:47:52;;;;;;;;;;;17.10;51.70;;;;;;4917217;29;20335;-85
2021/03/18 03:50:23;;;;;;;;;;;17.10;51.70;;;;;;4903317;29;20377;-84
2021/03/18 03:53:16;;;;;;;;;;;17.10;51.80;;;;;;4909987;29;19927;-84
2021/03/18 03:55:46;;;;;;;;;;;17.10;51.70;;;;;;4871754;29;19934;-86
2021/03/18 03:58:31;;;;;;;;;;;17.10;51.80;;;;;;4908212;29;19990;-85
2021/03/18 04:00:59;;;;;;;;;;;17.10;51.70;;;;;;4901909;29;19933;-85
2021/03/18 04:03:26;;;;;;;;;;;17.10;51.70;;;;;;4907501;29;19934;-85
2021/03/18 04:05:57;;;;;;;;;;;17.10;51.70;;;;;;4906659;29;19974;-85
2021/03/18 04:08:24;;;;;;;;;;;17.10;51.70;;;;;;4899139;29;19927;-85
2021/03/18 04:10:51;;;;;;;;;;;17.00;52.30;;;;;;4900999;29;19930;-84
2021/03/18 04:13:17;;;;;;;;;;;17.10;51.80;;;;;;4906368;29;20372;-83
2021/03/18 04:15:46;;;;;;;;;;;17.00;51.80;;;;;;4906172;29;19934;-83
2021/03/18 04:18:15;;;;;;;;;;;17.00;51.80;;;;;;4905263;29;19961;-84
2021/03/18 04:20:44;;;;;;;;;;;17.00;51.80;;;;;;4901955;29;19927;-84
2021/03/18 04:23:12;;;;;;;;;;;17.00;51.80;;;;;;4920881;29;19935;-84
2021/03/18 04:25:40;;;;;;;;;;;17.00;51.80;;;;;;4907484;29;19927;-84
2021/03/18 04:28:09;;;;;;;;;;;17.00;51.80;;;;;;4908380;29;19927;-83
2021/03/18 04:30:36;;;;;;;;;;;17.00;52.30;;;;;;4903626;29;19973;-83
2021/03/18 04:33:03;;;;;;;;;;;17.00;51.70;;;;;;4905811;29;19927;-83
2021/03/18 04:35:29;;;;;;;;;;;17.00;51.80;;;;;;4906635;29;19915;-83
2021/03/18 04:37:58;;;;;;;;;;;17.00;51.80;;;;;;4921249;29;20024;-83
2021/03/18 04:40:29;;;;;;;;;;;16.90;51.80;;;;;;4906459;29;19927;-83
2021/03/18 04:42:58;;;;;;;;;;;17.00;51.80;;;;;;4907462;29;19953;-84
2021/03/18 04:45:25;;;;;;;;;;;17.00;51.80;;;;;;4901508;29;19934;-83
2021/03/18 04:47:52;;;;;;;;;;;16.90;51.80;;;;;;4898944;29;20031;-83
2021/03/18 04:50:23;;;;;;;;;;;16.90;51.80;;;;;;4896812;29;19979;-82
2021/03/18 04:52:50;;;;;;;;;;;16.90;51.80;;;;;;4900970;29;19934;-82
2021/03/18 04:55:17;;;;;;;;;;;16.90;51.80;;;;;;4902879;29;19927;-83
2021/03/18 04:57:45;;;;;;;;;;;16.90;51.90;;;;;;4908233;29;19935;-83
2021/03/18 05:00:12;;;;;;;;;;;16.90;51.80;;;;;;4901362;29;20018;-84
2021/03/18 05:02:40;;;;;;;;;;;16.90;51.80;;;;;;4906683;29;19956;-84
2021/03/18 05:05:14;;;;;;;;;;;16.90;51.80;;;;;;4916994;29;20033;-86
2021/03/18 05:07:41;;;;;;;;;;;16.90;51.80;;;;;;4922902;29;19938;-86
2021/03/18 05:10:11;;;;;;;;;;;16.90;51.80;;;;;;4910575;29;19927;-95
2021/03/18 05:12:38;;;;;;;;;;;16.90;51.80;;;;;;4906286;29;19954;-87
2021/03/18 05:15:08;;;;;;;;;;;16.90;51.90;;;;;;4902910;29;19963;-87
2021/03/18 05:17:36;;;;;;;;;;;16.90;51.90;;;;;;4919044;29;19934;-86
2021/03/18 05:20:07;;;;;;;;;;;16.90;51.90;;;;;;4908555;29;19931;-87
2021/03/18 05:22:33;;;;;;;;;;;16.90;51.90;;;;;;4909546;29;20335;-86
2021/03/18 05:25:00;;;;;;;;;;;16.80;51.90;;;;;;4910392;29;19935;-85
2021/03/18 05:27:27;;;;;;;;;;;16.90;52.00;;;;;;4907550;29;19922;-89
2021/03/18 05:29:53;;;;;;;;;;;16.80;51.90;;;;;;4917747;29;20594;-86
2021/03/18 05:32:23;;;;;;;;;;;16.80;51.90;;;;;;4889744;29;20343;-87
2021/03/18 05:34:50;;;;;;;;;;;16.80;51.90;;;;;;4905976;29;19933;-87
2021/03/18 05:37:16;;;;;;;;;;;16.80;51.90;;;;;;4905907;29;19931;-87
2021/03/18 05:39:42;;;;;;;;;;;16.80;51.90;;;;;;4910297;29;19950;-87
2021/03/18 05:42:09;;;;;;;;;;;16.80;52.00;;;;;;4920518;28;20009;-88
2021/03/18 05:44:37;;;;;;;;;;;16.80;52.50;;;;;;4903156;29;20018;-86
2021/03/18 05:47:04;;;;;;;;;;;16.80;51.90;;;;;;4906426;29;19965;-86
2021/03/18 05:49:30;;;;;;;;;;;16.80;52.00;;;;;;4903598;29;19923;-86
2021/03/18 05:51:58;;;;;;;;;;;16.80;52.00;;;;;;4912289;29;20199;-86
2021/03/18 05:54:25;;;;;;;;;;;16.80;52.00;;;;;;4909632;29;19959;-86
2021/03/18 05:56:53;;;;;;;;;;;16.80;52.10;;;;;;4917569;29;20451;-85
2021/03/18 05:59:19;;;;;;;;;;;16.80;52.10;;;;;;4909941;29;20147;-85
2021/03/18 06:01:45;;;;;;;;;;;16.70;52.10;;;;;;4903253;29;20416;-86
2021/03/18 06:04:13;;;;;;;;;;;16.80;52.20;;;;;;4920015;28;19927;-87
2021/03/18 06:06:41;;;;;;;;;;;16.80;52.20;;;;;;4919791;29;19927;-86
2021/03/18 06:09:09;;;;;;;;;;;16.70;52.20;;;;;;4909837;29;19943;-96
2021/03/18 06:11:36;;;;;;;;;;;16.70;52.20;;;;;;4903195;29;19922;-86
2021/03/18 06:14:02;;;;;;;;;;;16.70;52.20;;;;;;4908078;29;19927;-94
2021/03/18 06:16:29;;;;;;;;;;;16.80;52.20;;;;;;4922183;29;19927;-96
2021/03/18 06:18:57;;;;;;;;;;;16.70;52.10;;;;;;4911964;29;19931;-93
2021/03/18 06:21:42;;;;;;;;;;;16.80;52.20;;;;;;4911290;29;20371;-92
2021/03/18 06:24:12;;;;;;;;;;;16.80;52.10;;;;;;4919269;29;20376;-84
2021/03/18 06:26:38;;;;;;;;;;;16.80;52.10;;;;;;4908583;29;19927;-84
2021/03/18 06:29:24;;;;;;;;;;;16.70;52.00;;;;;;4910892;29;19931;-86
2021/03/18 06:31:51;;;;;;;;;;;16.70;52.10;;;;;;4907800;29;19935;-89
2021/03/18 06:34:37;;;;;;;;;;;16.70;52.30;;;;;;4907325;29;19934;-86
2021/03/18 06:37:26;;;;;;;;;;;16.80;52.40;;;;;;4905909;29;19990;-89
2021/03/18 06:39:54;;;;;;;;;;;16.70;52.30;;;;;;4907141;29;19927;-89
2021/03/18 06:42:20;;;;;;;;;;;16.70;52.30;;;;;;4906368;29;21202;-88
2021/03/18 06:44:46;;;;;;;;;;;16.70;52.20;;;;;;4913535;29;19934;-92
2021/03/18 06:47:13;;;;;;;;;;;16.70;52.20;;;;;;4906064;29;20007;-91
2021/03/18 06:50:00;;;;;;;;;;;16.70;52.20;;;;;;4919148;29;19990;-88
2021/03/18 06:52:36;;;;;;;;;;;16.70;52.20;;;;;;4924323;29;19937;-85
2021/03/18 06:55:03;;;;;;;;;;;16.70;52.20;;;;;;4907152;29;19935;-85
2021/03/18 06:57:30;;;;;;;;;;;16.70;52.30;;;;;;4923252;29;20455;-85
2021/03/18 06:59:56;;;;;;;;;;;16.70;52.30;;;;;;4907263;29;19934;-86
2021/03/18 07:02:24;;;;;;;;;;;16.70;52.30;;;;;;4905272;29;19927;-85
2021/03/18 07:04:52;;;;;;;;;;;16.70;52.30;;;;;;4900103;29;19923;-85
2021/03/18 07:07:20;;;;;;;;;;;16.70;52.20;;;;;;4902077;29;19927;-86
2021/03/18 07:09:47;;;;;;;;;;;16.70;52.10;;;;;;4909101;29;19938;-84
2021/03/18 07:12:16;;;;;;;;;;;16.70;52.10;;;;;;4898664;29;20684;-84
2021/03/18 07:14:44;;;;;;;;;;;16.70;52.00;;;;;;4911390;29;19935;-87
2021/03/18 07:17:16;;;;;;;;;;;16.70;52.10;;;;;;4903850;29;20392;-84
2021/03/18 07:19:45;;;;;;;;;;;16.70;52.10;;;;;;4907426;29;19935;-85
2021/03/18 07:22:18;;;;;;;;;;;16.70;52.10;;;;;;4909446;29;20034;-83
2021/03/18 07:24:51;;;;;;;;;;;16.70;52.10;;;;;;4903542;29;19927;-84
2021/03/18 07:27:19;;;;;;;;;;;16.70;52.50;;;;;;4904949;29;19930;-84
2021/03/18 07:29:48;;;;;;;;;;;16.70;53.30;;;;;;4900058;29;19927;-84
2021/03/18 07:32:15;;;;;;;;;;;16.70;53.30;;;;;;4916549;29;19928;-83
2021/03/18 07:34:43;;;;;;;;;;;16.70;53.60;;;;;;4905192;29;19924;-95
2021/03/18 07:37:14;;;;;;;;;;;16.70;54.30;;;;;;4907649;29;20046;-92
2021/03/18 07:39:42;;;;;;;;;;;17.20;54.30;;;;;;4904215;29;20295;-87
2021/03/18 07:42:23;;;;;;;;;;;18.00;52.40;;;;;;4904759;29;19937;-87
2021/03/18 07:44:56;;;;;;;;;;;18.90;50.90;;;;;;4908447;29;19941;-90
2021/03/18 07:47:26;;;;;;;;;;;19.40;49.70;;;;;;4904011;29;19927;-87
2021/03/18 07:49:59;;;;;;;;;;;19.90;48.80;;;;;;4902852;29;20408;-87
2021/03/18 07:52:27;;;;;;;;;;;20.30;48.10;;;;;;4904162;29;19927;-85
2021/03/18 07:55:17;;;;;;;;;;;20.60;47.40;;;;;;4916674;29;19926;-91
2021/03/18 07:57:50;;;;;;;;;;;20.90;47.10;;;;;;4894712;29;20085;-87
2021/03/18 08:00:31;;;;;;;;;;;21.10;46.50;;;;;;4908642;29;19935;-92
2021/03/18 08:03:27;;;;;;;;;;;21.40;46.10;;;;;;4900459;29;19974;-90
2021/03/18 08:06:07;;;;;;;;;;;21.60;45.80;;;;;;4906589;29;20300;-86
2021/03/18 08:09:06;;;;;;;;;;;21.90;45.40;;;;;;4907484;29;19927;-95
2021/03/18 08:11:52;;;;;;;;;;;22.10;45.20;;;;;;4918557;29;20377;-94
2021/03/18 08:14:22;;;;;;;;;;;22.30;44.60;;;;;;4902623;29;19931;-91
2021/03/18 08:16:49;;;;;;;;;;;22.50;44.50;;;;;;4903273;29;20004;-89
2021/03/18 08:19:18;;;;;;;;;;;22.70;44.90;;;;;;4901162;29;20286;-86
2021/03/18 08:21:46;;;;;;;;;;;22.80;43.90;;;;;;4905437;29;20318;-86
2021/03/18 08:24:17;;;;;;;;;;;22.90;44.00;;;;;;4916432;29;19932;-91
2021/03/18 08:26:48;;;;;;;;;;;23.00;43.90;;;;;;4920496;29;19963;-90
2021/03/18 08:29:19;;;;;;;;;;;23.10;43.40;;;;;;4903305;29;20296;-90
2021/03/18 08:31:50;;;;;;;;;;;23.30;43.30;;;;;;4905696;29;19963;-88
2021/03/18 08:34:20;;;;;;;;;;;23.40;43.10;;;;;;4899637;29;19931;-89
2021/03/18 08:36:50;;;;;;;;;;;23.50;42.90;;;;;;4905936;29;19934;-89
2021/03/18 08:39:36;;;;;;;;;;;23.60;42.80;;;;;;4905223;29;19932;-88
2021/03/18 08:42:04;;;;;;;;;;;23.70;42.50;;;;;;4921718;29;19938;-94
2021/03/18 08:44:42;;;;;;;;;;;23.80;42.70;;;;;;4903688;29;19927;-89
2021/03/18 08:47:12;;;;;;;;;;;23.90;42.30;;;;;;4924797;29;19927;-89
2021/03/18 08:49:38;;;;;;;;;;;24.00;42.20;;;;;;4906471;29;20649;-89
2021/03/18 08:52:06;;;;;;;;;;;24.10;42.10;;;;;;4916217;29;20172;-88
2021/03/18 08:54:49;;;;;;;;;;;24.20;41.90;;;;;;4910180;29;19930;-86
2021/03/18 08:57:28;;;;;;;;;;;24.30;41.70;;;;;;4906996;29;19934;-90
2021/03/18 08:59:55;;;;;;;;;;;24.30;41.80;;;;;;4907251;29;19928;-86
2021/03/18 09:02:28;;;;;;;;;;;24.40;41.50;;;;;;4919727;29;19936;-86
2021/03/18 09:04:55;;;;;;;;;;;24.40;41.50;;;;;;4907931;29;19931;-87
2021/03/18 09:07:27;;;;;;;;;;;24.60;41.30;;;;;;4905744;29;20645;-86
2021/03/18 09:10:13;;;;;;;;;;;24.70;41.10;;;;;;4905281;29;19927;-88
2021/03/18 09:12:44;;;;;;;;;;;24.90;41.80;;;;;;4914404;29;19974;-83
2021/03/18 09:15:13;;;;;;;;;;;24.10;39.00;;;;;;4911052;29;19935;-83
2021/03/18 09:17:43;;;;;;;;;;;23.40;39.90;;;;;;4925509;28;19990;-84
2021/03/18 09:20:10;;;;;;;;;;;23.00;42.20;;;;;;4900930;29;19927;-83
2021/03/18 09:22:36;;;;;;;;;;;22.70;43.50;;;;;;4921222;28;19962;-83
2021/03/18 09:25:06;;;;;;;;;;;22.60;44.90;;;;;;4907637;29;20395;-84
2021/03/18 09:27:36;;;;;;;;;;;22.60;45.40;;;;;;4906908;29;19927;-82
2021/03/18 09:30:18;;;;;;;;;;;22.50;45.90;;;;;;4910869;29;20578;-84
2021/03/18 09:32:44;;;;;;;;;;;22.40;46.20;;;;;;4915409;28;19927;-84
2021/03/18 09:35:12;;;;;;;;;;;22.40;46.50;;;;;;4908919;29;19942;-83
2021/03/18 09:37:54;;;;;;;;;;;22.40;46.50;;;;;;4908652;29;19931;-93
2021/03/18 09:40:32;;;;;;;;;;;23.00;45.90;;;;;;4910052;29;19935;-87
2021/03/18 09:42:59;;;;;;;;;;;23.70;44.60;;;;;;4910259;29;19933;-88
2021/03/18 09:45:28;;;;;;;;;;;24.10;43.90;;;;;;4917241;29;20021;-91
2021/03/18 09:47:54;;;;;;;;;;;24.40;44.10;;;;;;4904401;29;19927;-87
2021/03/18 09:50:27;;;;;;;;;;;24.60;43.20;;;;;;4907263;29;19939;-86
2021/03/18 09:53:05;;;;;;;;;;;24.70;43.00;;;;;;4901142;29;19931;-92
2021/03/18 09:55:32;;;;;;;;;;;24.90;42.80;;;;;;4907263;29;20709;-92
2021/03/18 09:58:06;;;;;;;;;;;25.10;42.70;;;;;;4926482;29;20450;-94
2021/03/18 10:00:33;;;;;;;;;;;24.70;43.70;;;;;;4920565;29;19931;-86
2021/03/18 10:02:59;;;;;;;;;;;24.10;45.30;;;;;;4909316;29;20018;-90
2021/03/18 10:05:27;;;;;;;;;;;23.70;46.30;;;;;;4920025;29;19927;-88
2021/03/18 10:07:57;;;;;;;;;;;23.40;46.70;;;;;;4912411;29;19961;-88
2021/03/18 10:10:23;;;;;;;;;;;23.20;47.60;;;;;;4906661;29;20548;-91
2021/03/18 10:12:53;;;;;;;;;;;23.10;47.30;;;;;;4923201;29;20058;-91
2021/03/18 10:15:21;;;;;;;;;;;23.00;47.30;;;;;;4925034;29;19927;-91
2021/03/18 10:17:48;;;;;;;;;;;22.90;47.50;;;;;;4906055;29;20026;-91
2021/03/18 10:20:31;;;;;;;;;;;22.90;47.40;;;;;;4907260;29;19935;-93
2021/03/18 10:23:09;;;;;;;;;;;22.90;47.40;;;;;;4923611;29;19931;-89
2021/03/18 10:25:37;;;;;;;;;;;22.80;47.30;;;;;;4909109;29;19967;-92
2021/03/18 10:28:09;;;;;;;;;;;22.80;47.50;;;;;;4903282;29;19931;-92
2021/03/18 10:30:41;;;;;;;;;;;22.80;47.40;;;;;;4904099;29;19959;-90
2021/03/18 10:33:12;;;;;;;;;;;22.80;47.50;;;;;;4906504;29;19949;-86
2021/03/18 10:35:40;;;;;;;;;;;22.70;47.70;;;;;;4898485;29;19927;-87
2021/03/18 10:38:09;;;;;;;;;;;22.70;47.50;;;;;;4905526;29;19934;-85
2021/03/18 10:40:42;;;;;;;;;;;22.70;47.60;;;;;;4923454;28;19927;-86
2021/03/18 10:43:20;;;;;;;;;;;22.70;47.50;;;;;;4905234;29;19927;-87
2021/03/18 10:45:46;;;;;;;;;;;22.70;47.50;;;;;;4914276;29;19927;-90
2021/03/18 10:48:16;;;;;;;;;;;22.60;47.70;;;;;;4911602;29;19931;-90
2021/03/18 10:50:46;;;;;;;;;;;22.60;47.70;;;;;;4904083;29;19927;-89
2021/03/18 10:53:14;;;;;;;;;;;22.60;47.70;;;;;;4906930;29;20334;-91
2021/03/18 10:55:52;;;;;;;;;;;22.60;47.60;;;;;;4917147;29;19938;-86
2021/03/18 10:58:20;;;;;;;;;;;22.60;48.20;;;;;;4909508;29;19966;-90
2021/03/18 11:00:47;;;;;;;;;;;22.60;48.10;;;;;;4906892;29;19935;-87
2021/03/18 11:03:15;;;;;;;;;;;22.60;47.70;;;;;;4910121;29;19950;-89
2021/03/18 11:05:49;;;;;;;;;;;22.60;47.60;;;;;;4909220;29;19938;-87
2021/03/18 11:08:17;;;;;;;;;;;22.60;48.00;;;;;;4923492;29;19927;-86
2021/03/18 11:10:48;;;;;;;;;;;22.50;48.10;;;;;;4907348;29;20006;-92
2021/03/18 11:13:22;;;;;;;;;;;22.50;47.90;;;;;;4908521;29;19934;-91
2021/03/18 11:15:53;;;;;;;;;;;22.50;48.20;;;;;;4904664;29;20337;-87
2021/03/18 11:18:43;;;;;;;;;;;22.50;48.10;;;;;;4904496;29;19927;-90
2021/03/18 11:21:24;;;;;;;;;;;22.50;47.90;;;;;;4905061;29;20364;-87
2021/03/18 11:23:55;;;;;;;;;;;22.50;48.10;;;;;;4921469;28;19962;-90
2021/03/18 11:26:22;;;;;;;;;;;22.50;47.90;;;;;;4908208;29;19958;-86
2021/03/18 11:28:54;;;;;;;;;;;22.50;47.90;;;;;;4914595;28;19966;-86
2021/03/18 11:31:21;;;;;;;;;;;22.50;48.00;;;;;;4924787;29;19930;-87
2021/03/18 11:33:48;;;;;;;;;;;22.50;48.10;;;;;;4913045;29;19927;-92
2021/03/18 11:36:15;;;;;;;;;;;22.50;48.40;;;;;;4906569;29;19935;-90
2021/03/18 11:38:41;;;;;;;;;;;22.00;46.80;;;;;;4908412;29;19978;-93
2021/03/18 11:41:08;;;;;;;;;;;21.60;48.10;;;;;;4910718;29;19927;-93
2021/03/18 11:43:35;;;;;;;;;;;21.50;49.00;;;;;;4922691;29;20053;-91
2021/03/18 11:46:05;;;;;;;;;;;21.30;49.70;;;;;;4920015;28;20447;-93
2021/03/18 11:48:32;;;;;;;;;;;21.20;50.20;;;;;;4911452;29;19927;-83
2021/03/18 11:50:58;;;;;;;;;;;21.10;50.60;;;;;;4909295;29;19931;-90
2021/03/18 11:53:24;;;;;;;;;;;21.00;50.70;;;;;;4924710;29;20343;-92
2021/03/18 11:55:51;;;;;;;;;;;21.00;51.00;;;;;;4913977;29;20933;-93
2021/03/18 11:58:18;;;;;;;;;;;20.90;51.30;;;;;;4907620;29;19975;-92
2021/03/18 12:00:44;;;;;;;;;;;20.80;51.60;;;;;;4909382;29;19963;-91
2021/03/18 12:03:12;;;;;;;;;;;20.80;53.50;;;;;;4918212;29;19963;-86
2021/03/18 12:05:41;;;;;;;;;;;20.90;52.70;;;;;;4907438;29;19942;-89
2021/03/18 12:08:08;;;;;;;;;;;21.10;51.80;;;;;;4906364;29;20129;-86
2021/03/18 12:10:36;;;;;;;;;;;21.30;51.60;;;;;;4920871;29;19931;-86
2021/03/18 12:13:02;;;;;;;;;;;21.40;51.30;;;;;;4920681;28;19934;-87
2021/03/18 12:15:29;;;;;;;;;;;21.50;51.50;;;;;;4923873;29;19951;-87
2021/03/18 12:17:55;;;;;;;;;;;21.50;51.10;;;;;;4906560;29;19915;-85
2021/03/18 12:20:22;;;;;;;;;;;21.60;50.70;;;;;;4911999;29;20029;-90
2021/03/18 12:22:49;;;;;;;;;;;21.70;50.20;;;;;;4912503;29;20010;-85
2021/03/18 12:25:16;;;;;;;;;;;21.70;50.30;;;;;;4914208;29;19941;-86
2021/03/18 12:27:44;;;;;;;;;;;21.70;50.50;;;;;;4910881;29;19958;-87
2021/03/18 12:30:13;;;;;;;;;;;21.80;50.20;;;;;;4892880;29;19935;-87
2021/03/18 12:32:40;;;;;;;;;;;21.80;50.40;;;;;;4891463;29;19931;-86
2021/03/18 12:35:06;;;;;;;;;;;21.80;50.80;;;;;;4878636;29;19989;-88
2021/03/18 12:37:35;;;;;;;;;;;21.90;49.70;;;;;;4892900;29;20344;-89
2021/03/18 12:40:05;;;;;;;;;;;21.90;49.50;;;;;;4894535;29;20380;-86
2021/03/18 12:42:32;;;;;;;;;;;21.90;50.00;;;;;;4878251;29;19955;-83
2021/03/18 12:44:58;;;;;;;;;;;22.00;50.20;;;;;;4893300;29;20043;-84
2021/03/18 12:47:25;;;;;;;;;;;22.00;49.80;;;;;;4894341;29;19935;-88
2021/03/18 12:49:52;;;;;;;;;;;22.00;50.30;;;;;;4881930;29;19931;-91
2021/03/18 12:52:19;;;;;;;;;;;22.00;50.20;;;;;;4896642;29;20070;-92
2021/03/18 12:54:45;;;;;;;;;;;22.10;49.80;;;;;;4898501;29;19963;-87
2021/03/18 12:57:12;;;;;;;;;;;22.10;50.10;;;;;;4899950;29;19967;-94
2021/03/18 12:59:38;;;;;;;;;;;22.10;49.60;;;;;;4864221;29;20007;-87
2021/03/18 13:02:07;;;;;;;;;;;22.10;50.20;;;;;;4882816;29;19974;-90
2021/03/18 13:04:34;;;;;;;;;;;22.10;49.60;;;;;;4882466;29;19935;-90
2021/03/18 13:07:00;;;;;;;;;;;22.10;50.20;;;;;;4892990;29;19924;-87
2021/03/18 13:09:26;;;;;;;;;;;22.10;49.70;;;;;;4892179;29;19952;-89
2021/03/18 13:11:53;;;;;;;;;;;21.70;48.00;;;;;;4880417;29;19978;-88
2021/03/18 13:14:19;;;;;;;;;;;21.50;49.00;;;;;;4875465;29;19959;-89
2021/03/18 13:16:46;;;;;;;;;;;21.30;49.70;;;;;;4881800;29;20010;-92
2021/03/18 13:19:14;;;;;;;;;;;21.20;50.30;;;;;;4878843;29;19939;-89
2021/03/18 13:21:42;;;;;;;;;;;21.10;52.00;;;;;;4890888;29;19931;-93
2021/03/18 13:24:09;;;;;;;;;;;21.20;52.80;;;;;;4896349;29;19915;-92
2021/03/18 13:26:38;;;;;;;;;;;21.10;52.00;;;;;;4880667;29;19927;-96
2021/03/18 13:29:07;;;;;;;;;;;21.00;53.20;;;;;;4909282;29;19935;-94
2021/03/18 13:31:37;;;;;;;;;;;21.00;52.60;;;;;;4912933;29;19962;-94
2021/03/18 13:34:04;;;;;;;;;;;21.10;53.00;;;;;;4929724;29;19939;-89
2021/03/18 13:36:30;;;;;;;;;;;21.10;53.00;;;;;;4912029;29;20407;-89
2021/03/18 13:39:02;;;;;;;;;;;21.00;53.00;;;;;;4912957;29;20396;-87
2021/03/18 13:41:30;;;;;;;;;;;21.00;52.60;;;;;;4926452;29;19927;-88
2021/03/18 13:43:56;;;;;;;;;;;20.90;52.80;;;;;;4910140;29;20305;-84
2021/03/18 13:46:22;;;;;;;;;;;20.90;52.80;;;;;;4912880;29;19955;-87
2021/03/18 13:48:50;;;;;;;;;;;20.80;52.90;;;;;;4912189;29;19922;-88
2021/03/18 13:51:18;;;;;;;;;;;20.70;53.20;;;;;;4906581;29;19931;-89
2021/03/18 13:53:45;;;;;;;;;;;20.70;53.50;;;;;;4909921;29;20049;-88
2021/03/18 13:56:11;;;;;;;;;;;20.60;53.70;;;;;;4910451;29;19941;-86
2021/03/18 13:58:38;;;;;;;;;;;20.50;53.40;;;;;;4920211;29;20613;-86
2021/03/18 14:01:04;;;;;;;;;;;20.50;54.00;;;;;;4907881;29;19927;-85
2021/03/18 14:03:31;;;;;;;;;;;20.70;56.30;;;;;;4898694;29;19935;-88
2021/03/18 14:05:57;;;;;;;;;;;20.80;53.70;;;;;;4907865;29;19928;-88
2021/03/18 14:08:24;;;;;;;;;;;20.80;54.10;;;;;;4918788;29;19927;-85
2021/03/18 14:10:50;;;;;;;;;;;20.80;52.30;;;;;;4907581;29;19927;-85
2021/03/18 14:13:16;;;;;;;;;;;20.90;51.40;;;;;;4906252;29;20030;-86
2021/03/18 14:15:44;;;;;;;;;;;20.90;49.30;;;;;;4903704;29;19927;-86
2021/03/18 14:18:11;;;;;;;;;;;20.80;49.80;;;;;;4903276;29;19934;-86
2021/03/18 14:20:39;;;;;;;;;;;20.80;49.10;;;;;;4904298;29;20352;-85
2021/03/18 14:23:06;;;;;;;;;;;20.70;47.00;;;;;;4911119;29;20479;-91
2021/03/18 14:25:33;;;;;;;;;;;20.60;47.60;;;;;;4903952;29;20153;-89
2021/03/18 14:27:59;;;;;;;;;;;20.60;47.30;;;;;;4905558;29;19935;-87